Notice: Undefined index: language in D:\xampp\htdocs\vam\index.php on line 25
Open Air Virtual

 METAR AND TAF INFORMATION
METAR FOR EFIV
ADDS - METARS form results

(1524 UTC 04 June 2020)
Data provider http://aviationweather.gov/metar/data/
 
METAR text: EFIV 041520Z AUTO 05006KT 020V100 9999 OVC009 11/08 Q1013
Conditions at: EFIV (IVALO , FI) observed 1520 UTC 04 June 2020
Temperature: 11.0°C (52°F)
Dewpoint: 8.0°C (46°F) [RH = 82%]
Pressure (altimeter): 29.91 inches Hg (1013.0 mb)
Winds: from the NE (50 degrees) at 7 MPH (6 knots; 3.1 m/s)
Visibility: 6 or more miles (10+ km)
Ceiling: 900 feet AGL
Clouds: overcast cloud deck at 900 feet AGL
Weather: no significant weather observed at this time

METAR text: EFIV 041450Z AUTO 08006KT 030V110 9999 OVC009 10/08 Q1013
Conditions at: EFIV (IVALO , FI) observed 1450 UTC 04 June 2020
Temperature: 10.0°C (50°F)
Dewpoint: 8.0°C (46°F) [RH = 87%]
Pressure (altimeter): 29.91 inches Hg (1013.0 mb)
Winds: from the E (80 degrees) at 7 MPH (6 knots; 3.1 m/s)
Visibility: 6 or more miles (10+ km)
Ceiling: 900 feet AGL
Clouds: overcast cloud deck at 900 feet AGL
Weather: no significant weather observed at this time

 AIRPORT MAP

 RUNWAY INFORMATION
Runway 04 Runway length 8199 ft Runway width 148 ft
Runway elevation 480 ft Runway displaced threshold 0 ft Runway heading 47
Runway 22 Runway length 8199 ft Runway width 148 ft
Runway elevation 463 ft Runway displaced threshold 0 ft Runway heading 227
Runway 08 Runway length 2625 ft Runway width 148 ft
Runway elevation 475 ft Runway displaced threshold 0 ft Runway heading 92
Runway 26 Runway length 2625 ft Runway width 148 ft
Runway elevation 468 ft Runway displaced threshold 0 ft Runway heading 272

 AIRPORT FREQUENCIES
Type ATIS Name ATIS Frequency 123.2 MHZ
Type TWR Name TWR Frequency 118 MHZ

 AIRPORT NEAR NAVIGATION AIDS
Type NDB Name Akujarvi Frequency 432 KHZ



Powered by Virtual Airlines Manager [v2.6.2]